Home > Products > Valid Products > TAF

000
FTUS44 KSJT 031125
TAFSJT
TAF
KSJT 031125Z 0312/0412 18005KT P6SM FEW015
     FM031500 18009KT P6SM SCT035
     FM031900 13008KT P6SM FEW070=



000
FTUS44 KSJT 031125
TAFABI
TAF
KABI 031125Z 0312/0412 17010KT P6SM FEW250
     FM031900 15009KT P6SM FEW070=



000
FTUS44 KSJT 031125
TAFJCT
TAF
KJCT 031125Z 0312/0412 VRB03KT P6SM SCT015
      TEMPO 0312/0315 BKN015
     FM031500 18005KT P6SM SCT030
     FM031800 13007KT P6SM FEW070=



000
FTUS44 KSJT 030520
TAFSJT
TAF
KSJT 030520Z 0306/0406 14006KT P6SM SCT250
     FM031300 18007KT P6SM FEW015
     FM031500 18008KT P6SM SCT035
     FM031900 14008KT P6SM SCT070=



000
FTUS44 KSJT 030520
TAFSJT
TAF
KSJT 030520Z 0306/0406 14006KT P6SM SCT250
     FM031300 18007KT P6SM FEW015
     FM031500 18008KT P6SM SCT035
     FM031900 14008KT P6SM SCT070=



000
FTUS44 KSJT 030520
TAFJCT
TAF
KJCT 030520Z 0306/0406 11004KT P6SM SCT250
     FM031100 VRB03KT P6SM BKN015
     FM031500 18005KT P6SM SCT030
     FM031800 14007KT P6SM SCT060=



000
FTUS44 KSJT 030520
TAFJCT
TAF
KJCT 030520Z 0306/0406 11004KT P6SM SCT250
     FM031100 VRB03KT P6SM BKN015
     FM031500 18005KT P6SM SCT030
     FM031800 14007KT P6SM SCT060=



000
FTUS44 KSJT 030520
TAFABI
TAF
KABI 030520Z 0306/0406 15010KT P6SM SCT250
     FM031400 18008KT P6SM SKC
     FM031900 15009KT P6SM FEW070=



000
FTUS44 KSJT 030520
TAFABI
TAF
KABI 030520Z 0306/0406 15010KT P6SM SCT250
     FM031400 18008KT P6SM SKC
     FM031900 15009KT P6SM FEW070=



000
FTUS44 KSJT 022331
TAFSJT
TAF
KSJT 022331Z 0300/0324 14006KT P6SM SKC
     FM031300 18007KT P6SM SCT015
     FM031500 18008KT P6SM SCT035
     FM031900 14008KT P6SM SCT070=



000
FTUS44 KSJT 022331
TAFJCT
TAF
KJCT 022331Z 0300/0324 12009KT P6SM FEW070
     FM030200 15004KT P6SM SKC
     FM031100 18003KT P6SM BKN015
     FM031500 18005KT P6SM SCT030
     FM031800 14007KT P6SM SCT060=



000
FTUS44 KSJT 022331
TAFABI
TAF
KABI 022331Z 0300/0324 14010KT P6SM SKC
     FM031400 18008KT P6SM SKC
     FM031900 15009KT P6SM FEW070=



000
FTUS44 KSJT 022331
TAFSJT
TAF
KSJT 022331Z 0300/0324 14006KT P6SM SKC
     FM031300 18007KT P6SM SCT015
     FM031500 18008KT P6SM SCT035
     FM031900 14008KT P6SM SCT070=



000
FTUS44 KSJT 022331
TAFABI
TAF
KABI 022331Z 0300/0324 14010KT P6SM SKC
     FM031400 18008KT P6SM SKC
     FM031900 15009KT P6SM FEW070=



000
FTUS44 KSJT 022331
TAFJCT
TAF
KJCT 022331Z 0300/0324 12009KT P6SM FEW070
     FM030200 15004KT P6SM SKC
     FM031100 18003KT P6SM BKN015
     FM031500 18005KT P6SM SCT030
     FM031800 14007KT P6SM SCT060=



000
FTUS44 KSJT 021720
TAFJCT
TAF
KJCT 021720Z 0218/0318 12009KT P6SM FEW070
     FM030400 VRB03KT P6SM SKC
     FM031200 VRB03KT P6SM BKN015
     FM031500 18005KT P6SM FEW025=



000
FTUS44 KSJT 021720
TAFABI
TAF
KABI 021720Z 0218/0318 14010KT P6SM FEW080
     FM030200 15008KT P6SM SKC=



000
FTUS44 KSJT 021720
TAFSJT
TAF
KSJT 021720Z 0218/0318 16010KT P6SM FEW080
     FM030000 13006KT P6SM SKC
     FM031300 16008KT P6SM SCT015=



000
FTUS44 KSJT 021720
TAFSJT
TAF
KSJT 021720Z 0218/0318 16010KT P6SM FEW080
     FM030000 13006KT P6SM SKC
     FM031300 16008KT P6SM SCT015=



000
FTUS44 KSJT 021720
TAFJCT
TAF
KJCT 021720Z 0218/0318 12009KT P6SM FEW070
     FM030400 VRB03KT P6SM SKC
     FM031200 VRB03KT P6SM BKN015
     FM031500 18005KT P6SM FEW025=



000
FTUS44 KSJT 021720
TAFABI
TAF
KABI 021720Z 0218/0318 14010KT P6SM FEW080
     FM030200 15008KT P6SM SKC=



000
FTUS44 KSJT 021548 AAB
TAFJCT
TAF AMD
KJCT 021548Z 0216/0312 VRB05KT P6SM SCT020
     FM021800 12009KT P6SM SCT070=



000
FTUS44 KSJT 021548 AAB
TAFJCT
TAF AMD
KJCT 021548Z 0216/0312 VRB05KT P6SM SCT020
     FM021800 12009KT P6SM SCT070=



000
FTUS44 KSJT 021511 AAB
TAFSJT
TAF AMD
KSJT 021511Z 0215/0312 18010KT P6SM FEW015
     FM022000 13009KT P6SM FEW080=



000
FTUS44 KSJT 021403 AAA
TAFJCT
TAF AMD
KJCT 021403Z 0214/0312 VRB05KT P6SM SCT025
      TEMPO 0214/0216 BKN015
     FM021800 12009KT P6SM SCT070=



000
FTUS44 KSJT 021403 AAA
TAFJCT
TAF AMD
KJCT 021403Z 0214/0312 VRB05KT P6SM SCT025
      TEMPO 0214/0216 BKN015
     FM021800 12009KT P6SM SCT070=



000
FTUS44 KSJT 021254 AAA
TAFSJT
TAF AMD
KSJT 021254Z 0213/0312 18010KT P6SM SKC
      TEMPO 0213/0215 BKN010
     FM022000 13009KT P6SM FEW080=



000
FTUS44 KSJT 021254 AAA
TAFSJT
TAF AMD
KSJT 021254Z 0213/0312 18010KT P6SM SKC
      TEMPO 0213/0215 BKN010
     FM022000 13009KT P6SM FEW080=



000
FTUS44 KSJT 021138
TAFABI
TAF
KABI 021138Z 0212/0312 18011KT P6SM SKC
     FM021900 14008KT P6SM FEW070=



000
FTUS44 KSJT 021138
TAFSJT
TAF
KSJT 021138Z 0212/0312 18010KT P6SM SKC
     FM022000 13009KT P6SM FEW080=



000
FTUS44 KSJT 021138
TAFJCT
TAF
KJCT 021138Z 0212/0312 VRB05KT P6SM SCT025
      TEMPO 0212/0214 BKN015
     FM021800 12009KT P6SM SCT070=



000
FTUS44 KSJT 021138
TAFJCT
TAF
KJCT 021138Z 0212/0312 VRB05KT P6SM SCT025
      TEMPO 0212/0214 BKN015
     FM021800 12009KT P6SM SCT070=



000
FTUS44 KSJT 021138
TAFABI
TAF
KABI 021138Z 0212/0312 18011KT P6SM SKC
     FM021900 14008KT P6SM FEW070=



000
FTUS44 KSJT 021138
TAFSJT
TAF
KSJT 021138Z 0212/0312 18010KT P6SM SKC
     FM022000 13009KT P6SM FEW080=



000
FTUS44 KSJT 020520
TAFSJT
TAF
KSJT 020520Z 0206/0306 15007KT P6SM SKC
     FM021300 18006KT P6SM FEW020
     FM021500 18007KT P6SM SKC
     FM021900 11008KT P6SM FEW080=



000
FTUS44 KSJT 020520
TAFABI
TAF
KABI 020520Z 0206/0306 15009KT P6SM SKC
     FM021400 19010KT P6SM SKC
     FM021900 14008KT P6SM FEW070=



000
FTUS44 KSJT 020520
TAFABI
TAF
KABI 020520Z 0206/0306 15009KT P6SM SKC
     FM021400 19010KT P6SM SKC
     FM021900 14008KT P6SM FEW070=



000
FTUS44 KSJT 020520
TAFJCT
TAF
KJCT 020520Z 0206/0306 15008KT P6SM SKC
     FM021100 VRB04KT P6SM BKN020
     FM021600 17006KT P6SM SCT035
     FM021900 11007KT P6SM SCT070=



000
FTUS44 KSJT 020520
TAFSJT
TAF
KSJT 020520Z 0206/0306 15007KT P6SM SKC
     FM021300 18006KT P6SM FEW020
     FM021500 18007KT P6SM SKC
     FM021900 11008KT P6SM FEW080=



000
FTUS44 KSJT 020520
TAFJCT
TAF
KJCT 020520Z 0206/0306 15008KT P6SM SKC
     FM021100 VRB04KT P6SM BKN020
     FM021600 17006KT P6SM SCT035
     FM021900 11007KT P6SM SCT070=



000
FTUS44 KSJT 012327
TAFSJT
TAF
KSJT 012327Z 0200/0224 14007KT P6SM SKC
     FM021300 18006KT P6SM FEW020
     FM021500 18007KT P6SM SKC
     FM021900 11008KT P6SM FEW080=



000
FTUS44 KSJT 012327
TAFABI
TAF
KABI 012327Z 0200/0224 15009KT P6SM SKC
     FM021400 19010KT P6SM SKC
     FM021900 15008KT P6SM FEW070=



000
FTUS44 KSJT 012327
TAFJCT
TAF
KJCT 012327Z 0200/0224 15008KT P6SM SKC
     FM021100 VRB04KT P6SM BKN020
     FM021600 17006KT P6SM SCT035
     FM021900 12007KT P6SM SCT070=



000
FTUS44 KSJT 012040 AAA
TAFJCT
TAF AMD
KJCT 012040Z 0121/0218 15010KT P6SM SCT070
     FM020100 14006KT P6SM SKC
     FM021300 17005KT P6SM SCT020
     FM021600 18006KT P6SM SCT035=



000
FTUS44 KSJT 012040 AAA
TAFJCT
TAF AMD
KJCT 012040Z 0121/0218 15010KT P6SM SCT070
     FM020100 14006KT P6SM SKC
     FM021300 17005KT P6SM SCT020
     FM021600 18006KT P6SM SCT035=



000
FTUS44 KSJT 012038 AAB
TAFSJT
TAF AMD
KSJT 012038Z 0121/0218 16008KT P6SM FEW070
     FM012300 14008KT P6SM SKC
     FM021300 18008KT P6SM SKC=



000
FTUS44 KSJT 012038 AAA
TAFABI
TAF AMD
KABI 012038Z 0121/0218 14012KT P6SM FEW070
     FM020000 15009KT P6SM SKC
     FM021400 19010KT P6SM SKC=



000
FTUS44 KSJT 012038 AAB
TAFSJT
TAF AMD
KSJT 012038Z 0121/0218 16008KT P6SM FEW070
     FM012300 14008KT P6SM SKC
     FM021300 18008KT P6SM SKC=



000
FTUS44 KSJT 011730
TAFABI
TAF
KABI 011730Z 0118/0218 17011KT P6SM SKC
     FM020000 16009KT P6SM SKC
     FM021400 19010KT P6SM SKC=



000
FTUS44 KSJT 011730
TAFJCT
TAF
KJCT 011730Z 0118/0218 15010KT P6SM SCT035
     FM020100 14006KT P6SM SKC
     FM021300 17005KT P6SM SCT020
     FM021600 18006KT P6SM SCT035=



000
FTUS44 KSJT 011730
TAFSJT
TAF
KSJT 011730Z 0118/0218 16010KT P6SM FEW050
     FM012300 14008KT P6SM SKC
     FM021300 18008KT P6SM SKC=



000
FTUS44 KSJT 011546 AAB
TAFJCT
TAF AMD
KJCT 011546Z 0116/0212 15010KT P6SM BKN025
     FM011800 15009KT P6SM BKN035=



000
FTUS44 KSJT 011546 AAB
TAFJCT
TAF AMD
KJCT 011546Z 0116/0212 15010KT P6SM BKN025
     FM011800 15009KT P6SM BKN035=



000
FTUS44 KSJT 011351 AAA
TAFJCT
TAF AMD
KJCT 011351Z 0114/0212 VRB04KT P6SM SKC
      TEMPO 0114/0115 BKN012
     FM011600 15009KT P6SM FEW080=



000
FTUS44 KSJT 011120
TAFJCT
TAF
KJCT 011120Z 0112/0212 VRB04KT P6SM SKC
     FM011600 15009KT P6SM FEW080=



000
FTUS44 KSJT 011120
TAFSJT
TAF
KSJT 011120Z 0112/0212 18010KT P6SM SKC
     FM011800 15010G15KT P6SM FEW080
     FM012300 14008KT P6SM SKC=



000
FTUS44 KSJT 011120
TAFABI
TAF
KABI 011120Z 0112/0212 17011KT P6SM SKC
     FM011800 19011G17KT P6SM FEW080
     FM020000 15010KT P6SM FEW080=



000
FTUS44 KSJT 011120
TAFSJT
TAF
KSJT 011120Z 0112/0212 18010KT P6SM SKC
     FM011800 15010G15KT P6SM FEW080
     FM012300 14008KT P6SM SKC=



000
FTUS44 KSJT 011120
TAFABI
TAF
KABI 011120Z 0112/0212 17011KT P6SM SKC
     FM011800 19011G17KT P6SM FEW080
     FM020000 15010KT P6SM FEW080=



000
FTUS44 KSJT 011120
TAFJCT
TAF
KJCT 011120Z 0112/0212 VRB04KT P6SM SKC
     FM011600 15009KT P6SM FEW080=



000
FTUS44 KSJT 010721 AAA
TAFSJT
TAF AMD
KSJT 010721Z 0107/0206 17011G17KT P6SM SKC
     FM012100 14009KT P6SM SKC=



000
FTUS44 KSJT 010721 AAA
TAFSJT
TAF AMD
KSJT 010721Z 0107/0206 17011G17KT P6SM SKC
     FM012100 14009KT P6SM SKC=



000
FTUS44 KSJT 010520
TAFSJT
TAF
KSJT 010520Z 0106/0206 15007KT P6SM SKC=



000
FTUS44 KSJT 010520
TAFABI
TAF
KABI 010520Z 0106/0206 14008KT P6SM SKC
     FM011800 19010G16KT P6SM FEW080=



000
FTUS44 KSJT 010520
TAFJCT
TAF
KJCT 010520Z 0106/0206 15009KT P6SM SKC=



000
FTUS44 KSJT 010520
TAFSJT
TAF
KSJT 010520Z 0106/0206 15007KT P6SM SKC=



000
FTUS44 KSJT 010520
TAFJCT
TAF
KJCT 010520Z 0106/0206 15009KT P6SM SKC=



000
FTUS44 KSJT 010520
TAFABI
TAF
KABI 010520Z 0106/0206 14008KT P6SM SKC
     FM011800 19010G16KT P6SM FEW080=



000
FTUS44 KSJT 312320
TAFJCT
TAF
KJCT 312320Z 0100/0124 13007KT P6SM SKC=



000
FTUS44 KSJT 312320
TAFSJT
TAF
KSJT 312320Z 0100/0124 15007KT P6SM SKC=



000
FTUS44 KSJT 312320
TAFABI
TAF
KABI 312320Z 0100/0124 15008KT P6SM SKC
     FM011800 19010G16KT P6SM FEW080=



000
FTUS44 KSJT 311720
TAFABI
TAF
KABI 311720Z 3118/0118 17010G16KT P6SM FEW080
     FM312300 15008KT P6SM SKC=



000
FTUS44 KSJT 311720
TAFSJT
TAF
KSJT 311720Z 3118/0118 16010KT P6SM FEW080
     FM010600 18006KT P6SM SKC=



000
FTUS44 KSJT 311720
TAFJCT
TAF
KJCT 311720Z 3118/0118 13007KT P6SM FEW070
     FM010600 17005KT P6SM SKC=



000
FTUS44 KSJT 311720
TAFJCT
TAF
KJCT 311720Z 3118/0118 13007KT P6SM FEW070
     FM010600 17005KT P6SM SKC=



000
FTUS44 KSJT 311720
TAFSJT
TAF
KSJT 311720Z 3118/0118 16010KT P6SM FEW080
     FM010600 18006KT P6SM SKC=



000
FTUS44 KSJT 311720
TAFABI
TAF
KABI 311720Z 3118/0118 17010G16KT P6SM FEW080
     FM312300 15008KT P6SM SKC=



000
FTUS44 KSJT 311720 CCA
TAFSJT
TAF COR
KSJT 311720Z 3118/0118 16010G16KT P6SM FEW080
     FM010600 18006KT P6SM SKC=



000
FTUS44 KSJT 311720 CCA
TAFSJT
TAF COR
KSJT 311720Z 3118/0118 16010G16KT P6SM FEW080
     FM010600 18006KT P6SM SKC=



    US Dept of Commerce
    National Oceanic and Atmospheric Administration
    National Weather Service
    1325 East West Highway
    Silver Spring, MD 20910
    Page Author: NWS Internet Services Team
Disclaimer
Information Quality
Credits
Glossary
Privacy Policy
Freedom of Information Act (FOIA)
About Us
Career Opportunities